Ainsworth, Nebraska
Current Conditions -  °F | °C
As of 7:35 AM on Saturday 01 Nov 2014 (Local Time) from KANW Reporting Station
Clear Clear  
Wind Chill: 17°   Ceiling: Unl
Heat Index: 30°   Visibility: 10mi
Dew Point: 15°   Wind: 21mph
Humidity: 53%   Direction: 170°S
Pressure: 30.08"   Gusts: 29mph
Location:  42.55°N, 99.86°W
Report Text: KANW 011235Z AUTO 17018G25KT 10SM CLR M01/M09 A3008 RMK AO2 T10111095
Loading
Personal Weather Stations






























Interactive Weather Map
Tropical Storm Tracking
New forecast layout! Learn more

10-Day Weather Forecast

Advertisements
Track Severe Weather on mobile